Time,TemperatureF,DewpointF,PressureIn,WindDirection,WindDirectionDegrees,WindSpeedMPH,WindSpeedGustMPH,Humidity,HourlyPrecipIn,Conditions,Clouds,dailyrainin,SoftwareType,DateUTC
2013-09-11 00:00:00,79.3,68.5,29.12,SSW,202,2.5,2.5,69,0.00,,,0.00,WUHU216WMR100,2013-09-11 04:00:00,
2013-09-11 00:01:00,79.2,68.4,29.12,SSW,202,2.5,2.5,69,0.00,,,0.00,WUHU216WMR100,2013-09-11 04:01:00,
2013-09-11 00:02:00,79.2,68.4,29.12,SSW,202,2.5,2.5,69,0.00,,,0.00,WUHU216WMR100,2013-09-11 04:02:00,
2013-09-11 00:03:00,79.2,68.4,29.12,SSW,202,2.5,2.5,69,0.00,,,0.00,WUHU216WMR100,2013-09-11 04:03:00,
2013-09-11 00:08:00,79.2,68.4,29.12,SSW,202,2.5,2.5,69,0.00,,,0.00,WUHU216WMR100,2013-09-11 04:08:00,
2013-09-11 00:13:00,79.0,68.2,29.12,SSW,202,2.5,2.5,69,0.00,,,0.00,WUHU216WMR100,2013-09-11 04:13:00,
2013-09-11 00:18:00,79.0,68.2,29.12,SSW,202,2.5,2.5,69,0.00,,,0.00,WUHU216WMR100,2013-09-11 04:18:00,
2013-09-11 00:23:00,78.8,68.4,29.12,SSW,202,2.5,2.5,70,0.00,,,0.00,WUHU216WMR100,2013-09-11 04:23:00,
2013-09-11 00:28:00,78.6,68.2,29.12,SSW,202,2.5,2.5,70,0.00,,,0.00,WUHU216WMR100,2013-09-11 04:28:00,
2013-09-11 00:33:00,78.6,68.2,29.12,SSE,157,0.0,2.5,70,0.00,,,0.00,WUHU216WMR100,2013-09-11 04:33:00,
2013-09-11 00:38:00,78.6,68.6,29.12,SSE,157,0.0,2.5,71,0.00,,,0.00,WUHU216WMR100,2013-09-11 04:38:00,
2013-09-11 00:43:00,78.6,68.6,29.12,SSE,157,0.0,0.0,71,0.00,,,0.00,WUHU216WMR100,2013-09-11 04:43:00,
2013-09-11 00:48:00,78.6,68.6,29.15,SSE,157,0.0,0.0,71,0.00,,,0.00,WUHU216WMR100,2013-09-11 04:48:00,
2013-09-11 00:53:00,78.4,68.4,29.15,SSE,157,0.0,0.0,71,0.00,,,0.00,WUHU216WMR100,2013-09-11 04:53:00,
2013-09-11 00:58:00,78.3,68.3,29.15,SSE,157,0.0,0.0,71,0.00,,,0.00,WUHU216WMR100,2013-09-11 04:58:00,
2013-09-11 01:03:00,78.1,68.1,29.15,SSE,157,0.0,0.0,71,0.00,,,0.00,WUHU216WMR100,2013-09-11 05:03:00,
2013-09-11 01:08:00,77.9,68.3,29.15,SSE,157,0.0,0.0,72,0.00,,,0.00,WUHU216WMR100,2013-09-11 05:08:00,
2013-09-11 01:13:00,77.7,68.1,29.15,SSE,157,0.0,0.0,72,0.00,,,0.00,WUHU216WMR100,2013-09-11 05:13:00,
2013-09-11 01:18:00,77.5,68.0,29.12,SSE,157,0.0,0.0,72,0.00,,,0.00,WUHU216WMR100,2013-09-11 05:18:00,
2013-09-11 01:23:00,77.4,67.9,29.12,SSE,157,0.0,0.0,72,0.00,,,0.00,WUHU216WMR100,2013-09-11 05:23:00,
2013-09-11 01:28:00,77.4,68.3,29.12,SSE,157,0.0,0.0,73,0.00,,,0.00,WUHU216WMR100,2013-09-11 05:28:00,
2013-09-11 01:33:00,77.2,68.4,29.12,SSE,157,0.0,0.0,74,0.00,,,0.00,WUHU216WMR100,2013-09-11 05:33:00,
2013-09-11 01:38:00,77.0,68.3,29.12,SSE,157,0.0,0.0,74,0.00,,,0.00,WUHU216WMR100,2013-09-11 05:38:00,
2013-09-11 01:43:00,76.6,68.2,29.12,SSE,157,0.0,0.0,75,0.00,,,0.00,WUHU216WMR100,2013-09-11 05:43:00,
2013-09-11 01:48:00,76.6,68.2,29.12,SSE,157,0.0,0.0,75,0.00,,,0.00,WUHU216WMR100,2013-09-11 05:48:00,
2013-09-11 01:53:00,76.6,68.6,29.12,SSE,157,0.0,0.0,76,0.00,,,0.00,WUHU216WMR100,2013-09-11 05:53:00,
2013-09-11 01:58:00,76.5,68.9,29.12,SSE,157,0.0,0.0,77,0.00,,,0.00,WUHU216WMR100,2013-09-11 05:58:00,
2013-09-11 02:03:00,76.3,68.3,29.15,SSE,157,0.0,0.0,76,0.00,,,0.00,WUHU216WMR100,2013-09-11 06:03:00,
2013-09-11 02:08:00,76.3,68.7,29.15,SSE,157,0.0,0.0,77,0.00,,,0.00,WUHU216WMR100,2013-09-11 06:08:00,
2013-09-11 02:13:00,76.3,68.7,29.15,SSE,157,0.0,0.0,77,0.00,,,0.00,WUHU216WMR100,2013-09-11 06:13:00,
2013-09-11 02:18:00,76.1,68.5,29.12,SSE,157,0.0,0.0,77,0.00,,,0.00,WUHU216WMR100,2013-09-11 06:18:00,
2013-09-11 02:23:00,76.3,68.7,29.12,SSE,157,0.0,0.0,77,0.00,,,0.00,WUHU216WMR100,2013-09-11 06:23:00,
2013-09-11 02:28:00,76.3,69.1,29.12,SSE,157,0.0,0.0,78,0.00,,,0.00,WUHU216WMR100,2013-09-11 06:28:00,
2013-09-11 02:33:00,76.3,69.1,29.12,SSE,157,0.0,0.0,78,0.00,,,0.00,WUHU216WMR100,2013-09-11 06:33:00,
2013-09-11 02:38:00,76.1,68.9,29.12,SSE,157,0.0,0.0,78,0.00,,,0.00,WUHU216WMR100,2013-09-11 06:38:00,
2013-09-11 02:43:00,76.1,68.9,29.12,SSE,157,0.0,0.0,78,0.00,,,0.00,WUHU216WMR100,2013-09-11 06:43:00,
2013-09-11 02:48:00,75.9,68.7,29.12,SSE,157,0.0,0.0,78,0.00,,,0.00,WUHU216WMR100,2013-09-11 06:48:00,
2013-09-11 02:53:00,75.7,68.5,29.12,SSE,157,0.0,0.0,78,0.00,,,0.00,WUHU216WMR100,2013-09-11 06:53:00,
2013-09-11 02:58:00,75.6,68.7,29.12,SSE,157,0.0,0.0,79,0.00,,,0.00,WUHU216WMR100,2013-09-11 06:58:00,
2013-09-11 03:03:00,75.6,68.7,29.12,South,180,0.0,0.0,79,0.00,,,0.00,WUHU216WMR100,2013-09-11 07:03:00,
2013-09-11 03:08:00,75.6,68.7,29.12,South,180,0.0,0.0,79,0.00,,,0.00,WUHU216WMR100,2013-09-11 07:08:00,
2013-09-11 03:13:00,75.4,68.5,29.12,South,180,0.0,0.0,79,0.00,,,0.00,WUHU216WMR100,2013-09-11 07:13:00,
2013-09-11 03:18:00,75.4,68.5,29.12,South,180,0.0,0.0,79,0.00,,,0.00,WUHU216WMR100,2013-09-11 07:18:00,
2013-09-11 03:23:00,75.2,68.3,29.12,South,180,0.0,0.0,79,0.00,,,0.00,WUHU216WMR100,2013-09-11 07:23:00,
2013-09-11 03:28:00,75.2,68.3,29.12,South,180,0.0,0.0,79,0.00,,,0.00,WUHU216WMR100,2013-09-11 07:28:00,
2013-09-11 03:33:00,75.0,68.5,29.12,South,180,0.0,0.0,80,0.00,,,0.00,WUHU216WMR100,2013-09-11 07:33:00,
2013-09-11 03:38:00,74.8,68.3,29.12,South,180,0.0,0.0,80,0.00,,,0.00,WUHU216WMR100,2013-09-11 07:38:00,
2013-09-11 03:43:00,74.8,68.7,29.12,South,180,0.0,0.0,81,0.00,,,0.00,WUHU216WMR100,2013-09-11 07:43:00,
2013-09-11 03:48:00,74.8,68.7,29.12,South,180,0.0,0.0,81,0.00,,,0.00,WUHU216WMR100,2013-09-11 07:48:00,
2013-09-11 03:53:00,74.7,68.6,29.12,South,180,0.0,0.0,81,0.00,,,0.00,WUHU216WMR100,2013-09-11 07:53:00,
2013-09-11 03:58:00,74.7,68.6,29.12,South,180,0.0,0.0,81,0.00,,,0.00,WUHU216WMR100,2013-09-11 07:58:00,
2013-09-11 04:03:00,74.5,68.4,29.12,South,180,0.0,0.0,81,0.00,,,0.00,WUHU216WMR100,2013-09-11 08:03:00,
2013-09-11 04:08:00,74.3,68.2,29.12,South,180,0.0,0.0,81,0.00,,,0.00,WUHU216WMR100,2013-09-11 08:08:00,
2013-09-11 04:13:00,74.3,68.2,29.12,South,180,0.0,0.0,81,0.00,,,0.00,WUHU216WMR100,2013-09-11 08:13:00,
2013-09-11 04:18:00,74.3,68.5,29.12,South,180,0.0,0.0,82,0.00,,,0.00,WUHU216WMR100,2013-09-11 08:18:00,
2013-09-11 04:23:00,74.1,68.3,29.12,South,180,0.0,0.0,82,0.00,,,0.00,WUHU216WMR100,2013-09-11 08:23:00,
2013-09-11 04:28:00,74.1,68.3,29.12,South,180,0.0,0.0,82,0.00,,,0.00,WUHU216WMR100,2013-09-11 08:28:00,
2013-09-11 04:33:00,73.9,68.1,29.12,South,180,0.0,0.0,82,0.00,,,0.00,WUHU216WMR100,2013-09-11 08:33:00,
2013-09-11 04:38:00,73.9,68.5,29.12,South,180,0.0,0.0,83,0.00,,,0.00,WUHU216WMR100,2013-09-11 08:38:00,
2013-09-11 04:43:00,74.1,68.7,29.12,South,180,0.0,0.0,83,0.00,,,0.00,WUHU216WMR100,2013-09-11 08:43:00,
2013-09-11 04:48:00,74.1,68.7,29.12,South,180,0.0,0.0,83,0.00,,,0.00,WUHU216WMR100,2013-09-11 08:48:00,
2013-09-11 04:53:00,74.1,68.7,29.12,South,180,0.0,0.0,83,0.00,,,0.00,WUHU216WMR100,2013-09-11 08:53:00,
2013-09-11 04:58:00,73.9,68.5,29.12,South,180,0.0,0.0,83,0.00,,,0.00,WUHU216WMR100,2013-09-11 08:58:00,
2013-09-11 05:03:00,73.9,68.5,29.12,South,180,0.0,0.0,83,0.00,,,0.00,WUHU216WMR100,2013-09-11 09:03:00,
2013-09-11 05:08:00,73.8,68.4,29.12,South,180,0.0,0.0,83,0.00,,,0.00,WUHU216WMR100,2013-09-11 09:08:00,
2013-09-11 05:13:00,73.8,68.4,29.12,South,180,0.0,0.0,83,0.00,,,0.00,WUHU216WMR100,2013-09-11 09:13:00,
2013-09-11 05:18:00,73.8,68.7,29.12,South,180,0.0,0.0,84,0.00,,,0.00,WUHU216WMR100,2013-09-11 09:18:00,
2013-09-11 05:23:00,73.6,68.5,29.12,South,180,0.0,0.0,84,0.00,,,0.00,WUHU216WMR100,2013-09-11 09:23:00,
2013-09-11 05:28:00,73.6,68.5,29.12,South,180,0.0,0.0,84,0.00,,,0.00,WUHU216WMR100,2013-09-11 09:28:00,
2013-09-11 05:33:00,73.6,68.5,29.12,South,180,0.0,0.0,84,0.00,,,0.00,WUHU216WMR100,2013-09-11 09:33:00,
2013-09-11 05:38:00,73.4,68.3,29.12,SSE,157,0.0,0.0,84,0.00,,,0.00,WUHU216WMR100,2013-09-11 09:38:00,
2013-09-11 05:43:00,73.2,68.5,29.12,SSE,157,0.0,0.0,85,0.00,,,0.00,WUHU216WMR100,2013-09-11 09:43:00,
2013-09-11 05:48:00,73.0,68.3,29.12,SSE,157,0.0,0.0,85,0.00,,,0.00,WUHU216WMR100,2013-09-11 09:48:00,
2013-09-11 05:53:00,73.0,68.3,29.12,SSE,157,0.0,0.0,85,0.00,,,0.00,WUHU216WMR100,2013-09-11 09:53:00,
2013-09-11 05:58:00,73.0,68.3,29.12,SSE,157,0.0,0.0,85,0.00,,,0.00,WUHU216WMR100,2013-09-11 09:58:00,
2013-09-11 06:03:00,73.0,68.3,29.15,SSE,157,0.0,0.0,85,0.00,,,0.00,WUHU216WMR100,2013-09-11 10:03:00,
2013-09-11 06:08:00,72.9,68.5,29.15,SSE,157,0.0,0.0,86,0.00,,,0.00,WUHU216WMR100,2013-09-11 10:08:00,
2013-09-11 06:13:00,72.9,68.5,29.15,SSE,157,0.0,0.0,86,0.00,,,0.00,WUHU216WMR100,2013-09-11 10:13:00,
2013-09-11 06:18:00,72.9,68.5,29.12,SSE,157,0.0,0.0,86,0.00,,,0.00,WUHU216WMR100,2013-09-11 10:18:00,
2013-09-11 06:23:00,72.9,68.5,29.12,SSE,157,0.0,0.0,86,0.00,,,0.00,WUHU216WMR100,2013-09-11 10:23:00,
2013-09-11 06:29:00,72.7,68.3,29.12,SSE,157,0.0,0.0,86,0.00,,,0.00,WUHU216WMR100,2013-09-11 10:29:00,
2013-09-11 06:34:00,72.7,68.3,29.12,SSE,157,0.0,0.0,86,0.00,,,0.00,WUHU216WMR100,2013-09-11 10:34:00,
2013-09-11 06:38:00,72.7,68.6,29.12,SSE,157,0.0,0.0,87,0.00,,,0.00,WUHU216WMR100,2013-09-11 10:38:00,
2013-09-11 06:44:00,72.7,68.6,29.12,SSE,157,0.0,0.0,87,0.00,,,0.00,WUHU216WMR100,2013-09-11 10:44:00,
2013-09-11 06:49:00,72.7,68.6,29.15,SSE,157,0.0,0.0,87,0.00,,,0.00,WUHU216WMR100,2013-09-11 10:49:00,
2013-09-11 06:54:00,72.9,68.8,29.15,SSE,157,0.0,0.0,87,0.00,,,0.00,WUHU216WMR100,2013-09-11 10:54:00,
2013-09-11 06:59:00,72.7,68.6,29.15,SSE,157,0.0,0.0,87,0.00,,,0.00,WUHU216WMR100,2013-09-11 10:59:00,
2013-09-11 07:04:00,72.5,68.4,29.15,SSE,157,0.0,0.0,87,0.00,,,0.00,WUHU216WMR100,2013-09-11 11:04:00,
2013-09-11 07:09:00,72.5,68.4,29.15,SSE,157,0.0,0.0,87,0.00,,,0.00,WUHU216WMR100,2013-09-11 11:09:00,
2013-09-11 07:14:00,72.7,68.6,29.15,SSE,157,0.0,0.0,87,0.00,,,0.00,WUHU216WMR100,2013-09-11 11:14:00,
2013-09-11 07:19:00,72.9,68.8,29.15,SSE,157,0.0,0.0,87,0.00,,,0.00,WUHU216WMR100,2013-09-11 11:19:00,
2013-09-11 07:24:00,73.0,69.2,29.15,SSE,157,0.0,0.0,88,0.00,,,0.00,WUHU216WMR100,2013-09-11 11:24:00,
2013-09-11 07:29:00,73.2,69.4,29.15,SSE,157,0.0,0.0,88,0.00,,,0.00,WUHU216WMR100,2013-09-11 11:29:00,
2013-09-11 07:34:00,73.4,69.3,29.15,SSE,157,0.0,0.0,87,0.00,,,0.00,WUHU216WMR100,2013-09-11 11:34:00,
2013-09-11 07:39:00,73.4,69.3,29.15,SSE,157,0.0,0.0,87,0.00,,,0.00,WUHU216WMR100,2013-09-11 11:39:00,
2013-09-11 07:44:00,73.8,69.7,29.15,SSE,157,0.0,0.0,87,0.00,,,0.00,WUHU216WMR100,2013-09-11 11:44:00,
2013-09-11 07:49:00,73.9,69.8,29.15,SSE,157,0.0,0.0,87,0.00,,,0.00,WUHU216WMR100,2013-09-11 11:49:00,
2013-09-11 07:54:00,74.1,70.0,29.15,SSE,157,0.0,0.0,87,0.00,,,0.00,WUHU216WMR100,2013-09-11 11:54:00,
2013-09-11 07:59:00,74.5,70.1,29.15,SSE,157,0.0,0.0,86,0.00,,,0.00,WUHU216WMR100,2013-09-11 11:59:00,
2013-09-11 08:04:00,74.8,70.4,29.15,SSE,157,0.0,0.0,86,0.00,,,0.00,WUHU216WMR100,2013-09-11 12:04:00,
2013-09-11 08:09:00,75.2,70.4,29.15,SE,135,0.7,2.7,85,0.00,,,0.00,WUHU216WMR100,2013-09-11 12:09:00,
2013-09-11 08:14:00,75.6,70.1,29.15,SE,135,0.0,2.7,83,0.00,,,0.00,WUHU216WMR100,2013-09-11 12:14:00,
2013-09-11 08:19:00,75.7,70.2,29.15,SE,135,1.6,2.0,83,0.00,,,0.00,WUHU216WMR100,2013-09-11 12:19:00,
2013-09-11 08:25:00,76.3,70.5,29.15,SE,135,0.0,2.0,82,0.00,,,0.00,WUHU216WMR100,2013-09-11 12:25:00,
2013-09-11 08:30:00,76.8,70.6,29.15,SE,135,0.0,2.7,81,0.00,,,0.00,WUHU216WMR100,2013-09-11 12:30:00,
2013-09-11 08:35:00,77.2,69.6,29.15,WSW,247,1.2,3.4,77,0.00,,,0.00,WUHU216WMR100,2013-09-11 12:35:00,
2013-09-11 08:40:00,77.9,69.5,29.15,WSW,247,1.3,3.4,75,0.00,,,0.00,WUHU216WMR100,2013-09-11 12:40:00,
2013-09-11 08:45:00,78.6,69.0,29.15,West,270,1.5,3.1,72,0.00,,,0.00,WUHU216WMR100,2013-09-11 12:45:00,
2013-09-11 08:50:00,79.2,68.0,29.18,WNW,292,1.2,3.4,68,0.00,,,0.00,WUHU216WMR100,2013-09-11 12:50:00,
2013-09-11 08:55:00,80.1,67.5,29.18,WNW,287,1.2,3.4,65,0.00,,,0.00,WUHU216WMR100,2013-09-11 12:55:00,
2013-09-11 09:00:00,80.8,66.3,29.18,West,271,1.7,4.9,61,0.00,,,0.00,WUHU216WMR100,2013-09-11 13:00:00,
2013-09-11 09:05:00,81.1,65.2,29.15,SW,215,2.2,4.9,58,0.00,,,0.00,WUHU216WMR100,2013-09-11 13:05:00,
2013-09-11 09:10:00,81.9,66.4,29.15,SSE,157,1.6,3.8,59,0.00,,,0.00,WUHU216WMR100,2013-09-11 13:10:00,
2013-09-11 09:15:00,81.9,64.9,29.15,WSW,247,1.1,4.3,56,0.00,,,0.00,WUHU216WMR100,2013-09-11 13:15:00,
2013-09-11 09:20:00,83.1,64.9,29.15,WSW,247,0.9,4.3,54,0.00,,,0.00,WUHU216WMR100,2013-09-11 13:20:00,
2013-09-11 09:25:00,84.9,64.9,29.15,WSW,247,2.7,3.6,51,0.00,,,0.00,WUHU216WMR100,2013-09-11 13:25:00,
2013-09-11 09:30:00,84.6,62.2,29.15,SSW,208,2.6,4.3,47,0.00,,,0.00,WUHU216WMR100,2013-09-11 13:30:00,
2013-09-11 09:35:00,84.0,61.7,29.18,ESE,112,2.0,4.3,47,0.00,,,0.00,WUHU216WMR100,2013-09-11 13:35:00,
2013-09-11 09:40:00,84.2,61.2,29.18,East,90,1.3,2.9,46,0.00,,,0.00,WUHU216WMR100,2013-09-11 13:40:00,
2013-09-11 09:45:00,83.7,59.5,29.18,NNW,337,4.3,7.4,44,0.00,,,0.00,WUHU216WMR100,2013-09-11 13:45:00,
2013-09-11 09:50:00,83.5,59.3,29.15,NW,315,3.8,7.4,44,0.00,,,0.00,WUHU216WMR100,2013-09-11 13:50:00,
2013-09-11 09:55:00,83.7,60.1,29.15,SSW,209,2.7,5.4,45,0.00,,,0.00,WUHU216WMR100,2013-09-11 13:55:00,
2013-09-11 10:00:00,84.2,60.6,29.15,WSW,247,1.9,4.3,45,0.00,,,0.00,WUHU216WMR100,2013-09-11 14:00:00,
2013-09-11 10:05:00,86.0,62.2,29.15,WNW,292,1.6,3.8,45,0.00,,,0.00,WUHU216WMR100,2013-09-11 14:05:00,
2013-09-11 10:10:00,87.6,61.7,29.15,NW,315,2.5,2.9,42,0.00,,,0.00,WUHU216WMR100,2013-09-11 14:10:00,
2013-09-11 10:15:00,88.2,59.3,29.15,North,0,3.1,4.3,38,0.00,,,0.00,WUHU216WMR100,2013-09-11 14:15:00,
2013-09-11 10:20:00,88.7,60.5,29.15,NW,315,2.7,6.0,39,0.00,,,0.00,WUHU216WMR100,2013-09-11 14:20:00,
2013-09-11 10:25:00,88.5,57.3,29.15,NW,315,4.5,7.2,35,0.00,,,0.00,WUHU216WMR100,2013-09-11 14:25:00,
2013-09-11 10:31:00,87.4,57.9,29.15,NNW,337,3.1,8.7,37,0.00,,,0.00,WUHU216WMR100,2013-09-11 14:31:00,
2013-09-11 10:36:00,86.7,58.0,29.15,WNW,289,3.6,8.7,38,0.00,,,0.00,WUHU216WMR100,2013-09-11 14:36:00,
2013-09-11 10:41:00,86.9,58.9,29.15,WNW,290,2.3,6.5,39,0.00,,,0.00,WUHU216WMR100,2013-09-11 14:41:00,
2013-09-11 10:46:00,87.1,58.3,29.15,ESE,112,3.6,6.0,38,0.00,,,0.00,WUHU216WMR100,2013-09-11 14:46:00,
2013-09-11 10:51:00,88.3,58.7,29.15,West,270,4.0,6.0,37,0.00,,,0.00,WUHU216WMR100,2013-09-11 14:51:00,
2013-09-11 10:56:00,89.4,58.9,29.15,WSW,247,3.4,6.0,36,0.00,,,0.00,WUHU216WMR100,2013-09-11 14:56:00,
2013-09-11 11:01:00,88.0,57.6,29.15,NNW,337,2.7,6.5,36,0.00,,,0.00,WUHU216WMR100,2013-09-11 15:01:00,
2013-09-11 11:06:00,87.3,57.8,29.15,NW,320,3.3,6.5,37,0.00,,,0.00,WUHU216WMR100,2013-09-11 15:06:00,
2013-09-11 11:11:00,87.1,58.3,29.15,WNW,292,2.2,5.6,38,0.00,,,0.00,WUHU216WMR100,2013-09-11 15:11:00,
2013-09-11 11:16:00,88.3,59.4,29.15,NW,304,2.6,4.9,38,0.00,,,0.00,WUHU216WMR100,2013-09-11 15:16:00,
2013-09-11 11:21:00,87.8,59.0,29.15,South,174,2.5,4.9,38,0.00,,,0.00,WUHU216WMR100,2013-09-11 15:21:00,
2013-09-11 11:26:00,89.1,60.1,29.15,SSE,157,2.2,4.3,38,0.00,,,0.00,WUHU216WMR100,2013-09-11 15:26:00,
2013-09-11 11:31:00,90.3,59.7,29.15,WSW,247,1.6,4.3,36,0.00,,,0.00,WUHU216WMR100,2013-09-11 15:31:00,
2013-09-11 11:36:00,90.5,58.2,29.15,SW,225,3.6,5.6,34,0.00,,,0.00,WUHU216WMR100,2013-09-11 15:36:00,
2013-09-11 11:43:00,92.7,58.4,29.15,West,270,4.5,5.8,32,0.00,,,0.00,WUHU216WMR100,2013-09-11 15:43:00,
2013-09-11 11:48:00,92.5,58.3,29.15,WSW,247,2.5,5.8,32,0.00,,,0.00,WUHU216WMR100,2013-09-11 15:48:00,
2013-09-11 11:54:00,91.2,56.2,29.15,WNW,292,3.8,5.6,31,0.00,,,0.00,WUHU216WMR100,2013-09-11 15:54:00,
2013-09-11 11:59:00,90.5,55.6,29.15,SSW,202,2.9,5.6,31,0.00,,,0.00,WUHU216WMR100,2013-09-11 15:59:00,
2013-09-11 12:04:00,90.0,56.1,29.12,NW,317,2.3,4.9,32,0.00,,,0.00,WUHU216WMR100,2013-09-11 16:04:00,
2013-09-11 12:09:00,90.1,57.0,29.12,SW,216,2.5,4.3,33,0.00,,,0.00,WUHU216WMR100,2013-09-11 16:09:00,
2013-09-11 12:14:00,89.8,56.8,29.12,WNW,288,3.3,5.4,33,0.00,,,0.00,WUHU216WMR100,2013-09-11 16:14:00,
2013-09-11 12:19:00,91.4,59.0,29.12,SW,221,2.3,5.4,34,0.00,,,0.00,WUHU216WMR100,2013-09-11 16:19:00,
2013-09-11 12:24:00,93.0,58.7,29.12,WSW,250,2.8,5.4,32,0.00,,,0.00,WUHU216WMR100,2013-09-11 16:24:00,
2013-09-11 12:29:00,93.4,57.2,29.12,ESE,112,2.2,5.4,30,0.00,,,0.00,WUHU216WMR100,2013-09-11 16:29:00,
2013-09-11 12:34:00,93.2,56.1,29.12,SSW,202,2.2,3.8,29,0.00,,,0.00,WUHU216WMR100,2013-09-11 16:34:00,
2013-09-11 12:39:00,93.0,56.9,29.12,NNE,22,1.3,3.8,30,0.00,,,0.00,WUHU216WMR100,2013-09-11 16:39:00,
2013-09-11 12:44:00,94.6,57.3,29.12,ENE,67,2.5,4.7,29,0.00,,,0.00,WUHU216WMR100,2013-09-11 16:44:00,
2013-09-11 12:49:00,95.2,57.9,29.12,NW,315,2.7,4.7,29,0.00,,,0.00,WUHU216WMR100,2013-09-11 16:49:00,
2013-09-11 12:54:00,95.9,56.5,29.12,SSW,202,1.6,8.1,27,0.00,,,0.00,WUHU216WMR100,2013-09-11 16:54:00,
2013-09-11 12:59:00,94.1,55.9,29.12,NW,315,4.0,8.1,28,0.00,,,0.00,WUHU216WMR100,2013-09-11 16:59:00,
2013-09-11 13:04:00,93.2,55.2,29.12,WNW,288,2.8,8.1,28,0.00,,,0.00,WUHU216WMR100,2013-09-11 17:04:00,
2013-09-11 13:09:00,95.4,56.1,29.12,WSW,247,2.2,5.6,27,0.00,,,0.00,WUHU216WMR100,2013-09-11 17:09:00,
2013-09-11 13:14:00,95.5,56.1,29.12,NNW,330,4.1,7.4,27,0.00,,,0.00,WUHU216WMR100,2013-09-11 17:14:00,
2013-09-11 13:19:00,95.9,56.5,29.09,NNW,337,3.1,7.4,27,0.00,,,0.00,WUHU216WMR100,2013-09-11 17:19:00,
2013-09-11 13:24:00,96.6,58.1,29.09,SE,128,2.4,6.3,28,0.00,,,0.00,WUHU216WMR100,2013-09-11 17:24:00,
2013-09-11 13:29:00,97.3,56.6,29.09,North,350,1.9,6.3,26,0.00,,,0.00,WUHU216WMR100,2013-09-11 17:29:00,
2013-09-11 13:34:00,97.2,56.6,29.09,WSW,243,2.6,5.6,26,0.00,,,0.00,WUHU216WMR100,2013-09-11 17:34:00,
2013-09-11 13:39:00,98.2,56.3,29.09,West,259,2.4,4.9,25,0.00,,,0.00,WUHU216WMR100,2013-09-11 17:39:00,
2013-09-11 13:44:00,97.7,57.0,29.09,SSW,200,3.6,5.6,26,0.00,,,0.00,WUHU216WMR100,2013-09-11 17:44:00,
2013-09-11 13:49:00,98.1,55.1,29.09,SW,233,2.8,5.6,24,0.00,,,0.00,WUHU216WMR100,2013-09-11 17:49:00,
2013-09-11 13:54:00,98.6,54.4,29.09,SSW,202,4.5,5.4,23,0.00,,,0.00,WUHU216WMR100,2013-09-11 17:54:00,
2013-09-11 13:59:00,98.1,54.0,29.09,SW,216,3.5,5.8,23,0.00,,,0.00,WUHU216WMR100,2013-09-11 17:59:00,
2013-09-11 14:04:00,98.4,50.5,29.09,NNW,337,3.8,5.8,20,0.00,,,0.00,WUHU216WMR100,2013-09-11 18:04:00,
2013-09-11 14:09:00,99.0,50.9,29.09,SSE,157,3.6,6.0,20,0.00,,,0.00,WUHU216WMR100,2013-09-11 18:09:00,
2013-09-11 14:14:00,98.4,50.5,29.09,SSE,157,3.6,6.0,20,0.00,,,0.00,WUHU216WMR100,2013-09-11 18:14:00,
2013-09-11 14:19:00,97.9,50.0,29.09,SSW,202,4.3,5.6,20,0.00,,,0.00,WUHU216WMR100,2013-09-11 18:19:00,
2013-09-11 14:24:00,97.9,51.4,29.09,West,272,3.1,5.6,21,0.00,,,0.00,WUHU216WMR100,2013-09-11 18:24:00,
2013-09-11 14:29:00,98.1,51.5,29.09,West,270,2.2,4.3,21,0.00,,,0.00,WUHU216WMR100,2013-09-11 18:29:00,
2013-09-11 14:34:00,97.9,51.4,29.09,WSW,246,3.6,4.0,21,0.00,,,0.00,WUHU216WMR100,2013-09-11 18:34:00,
2013-09-11 14:39:00,98.4,51.8,29.09,South,180,2.7,5.4,21,0.00,,,0.00,WUHU216WMR100,2013-09-11 18:39:00,
2013-09-11 14:44:00,97.3,50.9,29.09,WSW,247,4.5,6.5,21,0.00,,,0.00,WUHU216WMR100,2013-09-11 18:44:00,
2013-09-11 14:49:00,95.9,53.3,29.09,WSW,247,1.6,6.5,24,0.00,,,0.00,WUHU216WMR100,2013-09-11 18:49:00,
2013-09-11 14:54:00,94.6,54.3,29.09,SSW,202,4.0,4.9,26,0.00,,,0.00,WUHU216WMR100,2013-09-11 18:54:00,
2013-09-11 14:59:00,94.1,54.9,29.09,SW,218,2.8,5.6,27,0.00,,,0.00,WUHU216WMR100,2013-09-11 18:59:00,
2013-09-11 15:04:00,92.7,53.8,29.09,SW,217,4.0,6.3,27,0.00,,,0.00,WUHU216WMR100,2013-09-11 19:04:00,
2013-09-11 15:09:00,91.9,54.1,29.09,WSW,247,4.3,7.6,28,0.00,,,0.00,WUHU216WMR100,2013-09-11 19:09:00,
2013-09-11 15:14:00,91.9,55.0,29.09,WSW,247,2.5,7.6,29,0.00,,,0.00,WUHU216WMR100,2013-09-11 19:14:00,
2013-09-11 15:19:00,91.9,55.0,29.06,West,263,2.3,4.3,29,0.00,,,0.00,WUHU216WMR100,2013-09-11 19:19:00,
2013-09-11 15:24:00,91.2,56.2,29.06,WNW,292,2.9,6.5,31,0.00,,,0.00,WUHU216WMR100,2013-09-11 19:24:00,
2013-09-11 15:29:00,90.7,56.7,29.06,WSW,256,2.5,6.5,32,0.00,,,0.00,WUHU216WMR100,2013-09-11 19:29:00,
2013-09-11 15:34:00,90.3,56.3,29.06,SSW,202,2.5,4.7,32,0.00,,,0.00,WUHU216WMR100,2013-09-11 19:34:00,
2013-09-11 15:39:00,90.0,56.9,29.06,NW,315,1.5,5.4,33,0.00,,,0.00,WUHU216WMR100,2013-09-11 19:39:00,
2013-09-11 15:44:00,89.6,56.6,29.06,WSW,247,3.1,5.4,33,0.00,,,0.00,WUHU216WMR100,2013-09-11 19:44:00,
2013-09-11 15:49:00,89.4,57.2,29.06,WSW,247,3.6,7.6,34,0.00,,,0.00,WUHU216WMR100,2013-09-11 19:49:00,
2013-09-11 15:54:00,89.2,57.9,29.06,WSW,247,3.8,7.6,35,0.00,,,0.00,WUHU216WMR100,2013-09-11 19:54:00,
2013-09-11 15:59:00,89.2,58.7,29.06,NNW,337,2.7,5.8,36,0.00,,,0.00,WUHU216WMR100,2013-09-11 19:59:00,
2013-09-11 16:04:00,89.2,59.5,29.06,WNW,292,1.5,6.9,37,0.00,,,0.00,WUHU216WMR100,2013-09-11 20:04:00,
2013-09-11 16:09:00,89.2,60.2,29.06,NW,305,2.6,6.9,38,0.00,,,0.00,WUHU216WMR100,2013-09-11 20:09:00,
2013-09-11 16:14:00,89.1,60.1,29.06,WNW,292,4.0,5.8,38,0.00,,,0.00,WUHU216WMR100,2013-09-11 20:14:00,
2013-09-11 16:19:00,89.4,60.4,29.06,WSW,247,2.9,5.8,38,0.00,,,0.00,WUHU216WMR100,2013-09-11 20:19:00,
2013-09-11 16:24:00,89.1,60.9,29.06,SSW,202,2.5,6.0,39,0.00,,,0.00,WUHU216WMR100,2013-09-11 20:24:00,
2013-09-11 16:29:00,89.2,61.0,29.06,NW,322,3.0,6.3,39,0.00,,,0.00,WUHU216WMR100,2013-09-11 20:29:00,
2013-09-11 16:34:00,88.7,60.5,29.06,SW,225,3.8,6.3,39,0.00,,,0.00,WUHU216WMR100,2013-09-11 20:34:00,
2013-09-11 16:39:00,88.5,61.1,29.06,SSW,202,2.0,5.8,40,0.00,,,0.00,WUHU216WMR100,2013-09-11 20:39:00,
2013-09-11 16:44:00,88.3,60.9,29.06,NNW,337,2.0,4.0,40,0.00,,,0.00,WUHU216WMR100,2013-09-11 20:44:00,
2013-09-11 16:49:00,87.8,59.7,29.06,NNW,345,3.0,6.5,39,0.00,,,0.00,WUHU216WMR100,2013-09-11 20:49:00,
2013-09-11 16:54:00,88.0,59.9,29.06,West,276,2.4,6.5,39,0.00,,,0.00,WUHU216WMR100,2013-09-11 20:54:00,
2013-09-11 17:00:00,88.2,59.3,29.06,SE,135,0.7,4.9,38,0.00,,,0.00,WUHU216WMR100,2013-09-11 21:00:00,
2013-09-11 17:05:00,88.3,59.4,29.06,NW,314,1.9,4.0,38,0.00,,,0.00,WUHU216WMR100,2013-09-11 21:05:00,
2013-09-11 17:10:00,88.5,58.8,29.06,WNW,292,2.2,4.0,37,0.00,,,0.00,WUHU216WMR100,2013-09-11 21:10:00,
2013-09-11 17:15:00,88.5,57.3,29.06,West,270,2.5,4.0,35,0.00,,,0.00,WUHU216WMR100,2013-09-11 21:15:00,
2013-09-11 17:20:00,88.3,56.3,29.06,SSW,202,3.8,6.5,34,0.00,,,0.00,WUHU216WMR100,2013-09-11 21:20:00,
2013-09-11 17:25:00,88.5,56.4,29.06,SE,146,2.5,6.5,34,0.00,,,0.00,WUHU216WMR100,2013-09-11 21:25:00,
2013-09-11 17:30:00,89.2,57.1,29.06,SW,225,2.7,6.5,34,0.00,,,0.00,WUHU216WMR100,2013-09-11 21:30:00,
2013-09-11 17:35:00,89.4,57.2,29.06,WSW,247,2.6,4.9,34,0.00,,,0.00,WUHU216WMR100,2013-09-11 21:35:00,
2013-09-11 17:41:00,89.4,56.4,29.06,SSW,202,2.7,4.9,33,0.00,,,0.00,WUHU216WMR100,2013-09-11 21:41:00,
2013-09-11 17:46:00,89.2,56.2,29.06,WSW,247,2.7,4.3,33,0.00,,,0.00,WUHU216WMR100,2013-09-11 21:46:00,
2013-09-11 17:51:00,88.9,55.1,29.03,SW,225,2.5,4.3,32,0.00,,,0.00,WUHU216WMR100,2013-09-11 21:51:00,
2013-09-11 17:56:00,88.7,54.9,29.03,WSW,247,1.6,3.6,32,0.00,,,0.00,WUHU216WMR100,2013-09-11 21:56:00,
2013-09-11 18:01:00,89.2,54.5,29.03,SSW,202,2.2,3.4,31,0.00,,,0.00,WUHU216WMR100,2013-09-11 22:01:00,
2013-09-11 18:06:00,89.2,53.6,29.03,SSW,202,2.2,3.4,30,0.00,,,0.00,WUHU216WMR100,2013-09-11 22:06:00,
2013-09-11 18:11:00,88.9,52.4,29.03,WSW,247,2.9,4.0,29,0.00,,,0.00,WUHU216WMR100,2013-09-11 22:11:00,
2013-09-11 18:16:00,88.0,51.6,29.03,WSW,247,4.0,4.0,29,0.00,,,0.00,WUHU216WMR100,2013-09-11 22:16:00,
2013-09-11 18:21:00,87.1,51.8,29.03,SSW,202,2.0,4.0,30,0.00,,,0.00,WUHU216WMR100,2013-09-11 22:21:00,
2013-09-11 18:26:00,86.4,51.2,29.03,WSW,247,2.0,4.0,30,0.00,,,0.00,WUHU216WMR100,2013-09-11 22:26:00,
2013-09-11 18:32:00,84.9,51.6,29.03,WSW,247,2.9,4.3,32,0.00,,,0.00,WUHU216WMR100,2013-09-11 22:32:00,
2013-09-11 18:37:00,84.4,51.2,29.03,SW,221,2.0,4.3,32,0.00,,,0.00,WUHU216WMR100,2013-09-11 22:37:00,
2013-09-11 18:43:00,83.7,52.2,29.03,SSW,202,0.0,3.8,34,0.00,,,0.00,WUHU216WMR100,2013-09-11 22:43:00,
2013-09-11 18:48:00,83.3,53.4,29.03,West,270,2.0,2.9,36,0.00,,,0.00,WUHU216WMR100,2013-09-11 22:48:00,
2013-09-11 18:53:00,82.8,53.8,29.03,WSW,247,1.1,2.9,37,0.00,,,0.00,WUHU216WMR100,2013-09-11 22:53:00,
2013-09-11 18:58:00,82.4,54.9,29.03,WSW,247,1.1,2.9,39,0.00,,,0.00,WUHU216WMR100,2013-09-11 22:58:00,
2013-09-11 19:04:00,81.9,55.1,29.03,South,180,1.6,3.1,40,0.00,,,0.00,WUHU216WMR100,2013-09-11 23:04:00,
2013-09-11 19:09:00,81.7,55.7,29.03,SW,217,1.1,2.9,41,0.00,,,0.00,WUHU216WMR100,2013-09-11 23:09:00,
2013-09-11 19:14:00,81.7,56.3,29.03,SSW,202,1.3,2.7,42,0.00,,,0.00,WUHU216WMR100,2013-09-11 23:14:00,
2013-09-11 19:19:00,81.5,56.2,29.03,SSE,157,0.2,2.2,42,0.00,,,0.00,WUHU216WMR100,2013-09-11 23:19:00,
2013-09-11 19:24:00,81.1,55.8,29.03,WSW,247,2.7,3.8,42,0.00,,,0.00,WUHU216WMR100,2013-09-11 23:24:00,
2013-09-11 19:29:00,81.0,56.4,29.03,WSW,247,1.7,3.8,43,0.00,,,0.00,WUHU216WMR100,2013-09-11 23:29:00,
2013-09-11 19:34:00,80.8,56.9,29.06,SSW,202,2.0,3.4,44,0.00,,,0.00,WUHU216WMR100,2013-09-11 23:34:00,
2013-09-11 19:39:00,80.6,56.7,29.06,WSW,247,0.8,2.7,44,0.00,,,0.00,WUHU216WMR100,2013-09-11 23:39:00,
2013-09-11 19:44:00,80.2,56.3,29.06,SSW,202,1.6,4.0,44,0.00,,,0.00,WUHU216WMR100,2013-09-11 23:44:00,
2013-09-11 19:49:00,80.1,56.9,29.06,SSW,202,1.1,4.0,45,0.00,,,0.00,WUHU216WMR100,2013-09-11 23:49:00,
2013-09-11 19:54:00,79.9,56.7,29.06,SSW,202,0.3,3.1,45,0.00,,,0.00,WUHU216WMR100,2013-09-11 23:54:00,
2013-09-11 19:59:00,79.9,56.7,29.06,WSW,247,0.9,2.2,45,0.00,,,0.00,WUHU216WMR100,2013-09-11 23:59:00,
2013-09-11 20:04:00,79.7,57.1,29.06,WSW,247,0.0,2.0,46,0.00,,,0.00,WUHU216WMR100,2013-09-12 00:04:00,
2013-09-11 20:09:00,79.5,57.6,29.06,WSW,247,0.0,2.0,47,0.00,,,0.00,WUHU216WMR100,2013-09-12 00:09:00,
2013-09-11 20:14:00,79.2,57.3,29.06,WSW,247,0.9,1.1,47,0.00,,,0.00,WUHU216WMR100,2013-09-12 00:14:00,
2013-09-11 20:19:00,79.2,58.5,29.06,SSW,202,1.2,3.4,49,0.00,,,0.00,WUHU216WMR100,2013-09-12 00:19:00,
2013-09-11 20:24:00,79.0,58.9,29.06,SSW,202,0.9,3.4,50,0.00,,,0.00,WUHU216WMR100,2013-09-12 00:24:00,
2013-09-11 20:29:00,78.8,58.7,29.06,SSE,157,0.0,2.7,50,0.00,,,0.00,WUHU216WMR100,2013-09-12 00:29:00,
2013-09-11 20:34:00,78.6,60.2,29.06,WSW,247,3.1,4.7,53,0.00,,,0.00,WUHU216WMR100,2013-09-12 00:34:00,
2013-09-11 20:39:00,78.6,60.2,29.06,WSW,247,0.4,4.7,53,0.00,,,0.00,WUHU216WMR100,2013-09-12 00:39:00,
2013-09-11 20:44:00,78.6,61.3,29.06,West,270,1.6,4.3,55,0.00,,,0.00,WUHU216WMR100,2013-09-12 00:44:00,
2013-09-11 20:49:00,78.4,61.1,29.03,SSW,202,2.0,3.1,55,0.00,,,0.00,WUHU216WMR100,2013-09-12 00:49:00,
2013-09-11 20:54:00,78.3,60.5,29.03,West,270,0.0,3.1,54,0.00,,,0.00,WUHU216WMR100,2013-09-12 00:54:00,
2013-09-11 20:59:00,78.3,61.0,29.03,West,270,2.0,3.6,55,0.00,,,0.00,WUHU216WMR100,2013-09-12 00:59:00,
2013-09-11 21:04:00,78.1,61.3,29.06,SSE,157,0.9,3.6,56,0.00,,,0.00,WUHU216WMR100,2013-09-12 01:04:00,
2013-09-11 21:09:00,78.1,61.3,29.06,WSW,247,1.3,2.7,56,0.00,,,0.00,WUHU216WMR100,2013-09-12 01:09:00,
2013-09-11 21:14:00,77.9,61.6,29.06,WSW,247,0.0,2.5,57,0.00,,,0.00,WUHU216WMR100,2013-09-12 01:14:00,
2013-09-11 21:19:00,77.9,61.6,29.03,WSW,247,2.0,3.4,57,0.00,,,0.00,WUHU216WMR100,2013-09-12 01:19:00,
2013-09-11 21:24:00,77.9,62.1,29.03,WSW,247,0.6,3.4,58,0.00,,,0.00,WUHU216WMR100,2013-09-12 01:24:00,
2013-09-11 21:29:00,78.1,62.3,29.03,SSW,203,2.4,4.9,58,0.00,,,0.00,WUHU216WMR100,2013-09-12 01:29:00,
2013-09-11 21:34:00,77.9,62.1,29.06,WSW,247,2.2,4.9,58,0.00,,,0.00,WUHU216WMR100,2013-09-12 01:34:00,
2013-09-11 21:39:00,77.9,62.1,29.06,West,270,1.9,4.3,58,0.00,,,0.00,WUHU216WMR100,2013-09-12 01:39:00,
2013-09-11 21:44:00,77.7,62.0,29.06,WSW,247,1.9,4.3,58,0.00,,,0.00,WUHU216WMR100,2013-09-12 01:44:00,
2013-09-11 21:49:00,77.5,61.8,29.03,WSW,247,1.6,3.4,58,0.00,,,0.00,WUHU216WMR100,2013-09-12 01:49:00,
2013-09-11 21:54:00,77.5,61.8,29.03,WSW,247,1.3,3.4,58,0.00,,,0.00,WUHU216WMR100,2013-09-12 01:54:00,
2013-09-11 21:59:00,77.5,62.3,29.03,SSE,157,1.6,3.4,59,0.00,,,0.00,WUHU216WMR100,2013-09-12 01:59:00,
2013-09-11 22:04:00,77.4,62.2,29.03,WSW,247,2.7,3.6,59,0.00,,,0.00,WUHU216WMR100,2013-09-12 02:04:00,
2013-09-11 22:09:00,77.2,62.0,29.03,WSW,247,0.0,3.6,59,0.00,,,0.00,WUHU216WMR100,2013-09-12 02:09:00,
2013-09-11 22:14:00,77.2,62.0,29.03,SW,225,0.4,2.7,59,0.00,,,0.00,WUHU216WMR100,2013-09-12 02:14:00,
2013-09-11 22:19:00,77.0,61.8,29.06,SW,225,1.0,2.0,59,0.00,,,0.00,WUHU216WMR100,2013-09-12 02:19:00,
2013-09-11 22:24:00,77.0,61.8,29.06,West,270,1.6,2.5,59,0.00,,,0.00,WUHU216WMR100,2013-09-12 02:24:00,
2013-09-11 22:29:00,77.0,62.3,29.06,West,270,1.6,2.5,60,0.00,,,0.00,WUHU216WMR100,2013-09-12 02:29:00,
2013-09-11 22:34:00,76.8,62.1,29.03,West,270,1.3,2.5,60,0.00,,,0.00,WUHU216WMR100,2013-09-12 02:34:00,
2013-09-11 22:39:00,76.6,62.4,29.03,West,270,0.8,2.2,61,0.00,,,0.00,WUHU216WMR100,2013-09-12 02:39:00,
2013-09-11 22:45:00,76.3,62.1,29.03,West,270,0.0,2.2,61,0.00,,,0.00,WUHU216WMR100,2013-09-12 02:45:00,
2013-09-11 22:49:00,76.1,62.4,29.03,West,270,1.3,2.2,62,0.00,,,0.00,WUHU216WMR100,2013-09-12 02:49:00,
2013-09-11 22:54:00,75.9,62.2,29.03,WSW,247,1.3,2.9,62,0.00,,,0.00,WUHU216WMR100,2013-09-12 02:54:00,
2013-09-11 22:59:00,75.7,62.0,29.03,WSW,247,0.1,2.9,62,0.00,,,0.00,WUHU216WMR100,2013-09-12 02:59:00,
2013-09-11 23:04:00,75.6,61.9,29.06,ESE,112,0.0,2.5,62,0.00,,,0.00,WUHU216WMR100,2013-09-12 03:04:00,
2013-09-11 23:09:00,75.6,61.9,29.06,SSE,157,1.6,2.9,62,0.00,,,0.00,WUHU216WMR100,2013-09-12 03:09:00,
2013-09-11 23:14:00,75.6,61.9,29.06,SSE,157,0.0,2.9,62,0.00,,,0.00,WUHU216WMR100,2013-09-12 03:14:00,
2013-09-11 23:19:00,75.6,61.9,29.03,SSE,157,0.9,1.6,62,0.00,,,0.00,WUHU216WMR100,2013-09-12 03:19:00,
2013-09-11 23:24:00,75.4,61.7,29.03,WSW,247,2.5,2.5,62,0.00,,,0.00,WUHU216WMR100,2013-09-12 03:24:00,
2013-09-11 23:29:00,75.4,61.7,29.03,South,180,1.6,2.5,62,0.00,,,0.00,WUHU216WMR100,2013-09-12 03:29:00,
2013-09-11 23:34:00,75.4,61.7,29.06,SSE,157,2.2,2.5,62,0.00,,,0.00,WUHU216WMR100,2013-09-12 03:34:00,
2013-09-11 23:40:00,75.4,61.7,29.06,SSE,162,1.4,2.5,62,0.00,,,0.00,WUHU216WMR100,2013-09-12 03:40:00,
2013-09-11 23:45:00,75.4,61.7,29.06,SSE,157,2.3,3.4,62,0.00,,,0.00,WUHU216WMR100,2013-09-12 03:45:00,
2013-09-11 23:50:00,75.4,61.7,29.03,SSE,157,2.2,3.4,62,0.00,,,0.00,WUHU216WMR100,2013-09-12 03:50:00,
2013-09-11 23:55:00,75.4,61.7,29.03,SW,225,2.8,3.8,62,0.00,,,0.00,WUHU216WMR100,2013-09-12 03:55:00,